Terminal Aerodrome Forecast
Issued by NWS Lake Charles, LA

Home | Current Version | Previous Version | Text Only | Print | Product List | Glossary On
Versions: 1 2 3 4 5 6 7 8 9 10 11 12 13 14 15 16 17 18
000
FTUS44 KLCH 172300
TAFLCH
TAF
KLCH 172331Z 1800/1824 06006KT P6SM FEW025 BKN100
     FM180100 03006KT P6SM BKN050
     FM180500 02005KT P6SM SCT012 SCT025 BKN050
     FM181400 01010KT P6SM SCT030 SCT050=

USA.gov is the U.S. government's official web portal to all federal, state and local government web resources and services.